Time;durP1;ratioP1;P1;durP2;ratioP2;P2;SDS_P1;SDS_P2;PMS_P1;PMS_P2;Temp;Humidity;BMP_temperature;BMP_pressure;BME280_temperature;BME280_humidity;BME280_pressure;Samples;Min_cycle;Max_cycle;Signal;HPM_P1;HPM_P2
2023/10/02 00:01:52;;;;;;;8.98;5.28;;;;;;;16.10;100.00;95425.09;5035930;28;20052;-80
2023/10/02 00:04:18;;;;;;;9.65;6.18;;;;;;;16.02;100.00;95420.38;5035317;28;20442;-80
2023/10/02 00:06:47;;;;;;;11.70;5.90;;;;;;;15.99;100.00;95420.94;5035172;28;20095;-80
2023/10/02 00:09:16;;;;;;;11.07;6.32;;;;;;;16.11;100.00;95424.78;5035222;28;20068;-80
2023/10/02 00:11:41;;;;;;;13.40;5.45;;;;;;;16.01;100.00;95421.44;5051883;28;20418;-80
2023/10/02 00:14:20;;;;;;;13.05;4.95;;;;;;;16.13;100.00;95421.09;5035115;28;20036;-80
2023/10/02 00:17:04;;;;;;;11.05;5.50;;;;;;;16.02;100.00;95423.03;5035035;28;20029;-80
2023/10/02 00:19:43;;;;;;;13.25;5.65;;;;;;;15.95;100.00;95426.78;5019647;28;20041;-80
2023/10/02 00:25:07;;;;;;;11.82;5.50;;;;;;;15.89;100.00;95419.94;5055453;28;20056;-80
2023/10/02 00:27:35;;;;;;;12.18;5.60;;;;;;;15.81;100.00;95416.00;5054664;28;20090;-80
2023/10/02 00:30:02;;;;;;;13.82;6.05;;;;;;;15.89;100.00;95417.28;5054581;28;20028;-80
2023/10/02 00:32:34;;;;;;;9.77;5.70;;;;;;;15.79;100.00;95422.63;5038158;28;20037;-80
2023/10/02 00:35:00;;;;;;;11.02;6.25;;;;;;;15.84;100.00;95422.59;5038868;28;20028;-80
2023/10/02 00:37:47;;;;;;;10.07;5.85;;;;;;;15.75;100.00;95413.66;5037898;28;20032;-80
2023/10/02 00:40:26;;;;;;;16.50;6.22;;;;;;;15.81;100.00;95423.91;5040643;28;20389;-80
2023/10/02 00:42:59;;;;;;;10.05;5.53;;;;;;;15.64;100.00;95426.94;5054455;28;20032;-80
2023/10/02 00:45:42;;;;;;;16.20;5.47;;;;;;;15.54;100.00;95414.56;5054256;28;20345;-80
2023/10/02 00:48:26;;;;;;;11.93;6.07;;;;;;;15.52;100.00;95411.41;5054211;28;20272;-80
2023/10/02 00:50:54;;;;;;;;;;;;;;;15.48;100.00;95414.84;5040681;28;20028;-80
2023/10/02 00:53:32;;;;;;;9.57;5.43;;;;;;;15.49;100.00;95417.25;5038084;28;20325;-80
2023/10/02 00:56:03;;;;;;;17.40;5.78;;;;;;;15.33;100.00;95407.81;5054324;28;20456;-80
2023/10/02 00:58:28;;;;;;;11.13;5.68;;;;;;;15.29;100.00;95406.78;5054057;28;20120;-80
2023/10/02 01:00:55;;;;;;;9.50;5.65;;;;;;;15.32;100.00;95406.25;5053975;28;20111;-80
2023/10/02 01:03:22;;;;;;;11.98;6.15;;;;;;;15.34;100.00;95401.47;5037738;28;20083;-80
2023/10/02 01:05:50;;;;;;;17.23;6.20;;;;;;;15.68;100.00;95403.41;5053856;28;20350;-80
2023/10/02 01:08:42;;;;;;;10.32;5.90;;;;;;;15.94;100.00;95411.19;5053847;28;20052;-80
2023/10/02 01:11:09;;;;;;;13.85;5.80;;;;;;;16.00;100.00;95404.81;5055024;28;20029;-80
2023/10/02 01:13:35;;;;;;;11.77;6.07;;;;;;;16.00;100.00;95412.75;5053028;28;20450;-80
2023/10/02 01:16:09;;;;;;;11.50;5.75;;;;;;;15.87;100.00;95405.41;5037472;28;20395;-80
2023/10/02 01:18:39;;;;;;;11.77;5.72;;;;;;;15.85;100.00;95405.66;5053577;28;20036;-80
2023/10/02 01:21:11;;;;;;;9.60;5.72;;;;;;;15.77;100.00;95407.03;5053678;28;20032;-80
2023/10/02 01:26:50;;;;;;;10.25;5.65;;;;;;;15.76;100.00;95404.66;4993158;28;20053;-80
2023/10/02 01:29:16;;;;;;;12.60;6.05;;;;;;;15.75;100.00;95403.88;5010278;28;20351;-80
2023/10/02 01:31:42;;;;;;;9.75;5.55;;;;;;;15.71;100.00;95400.22;5033743;28;20042;-80
2023/10/02 01:34:10;;;;;;;10.70;5.82;;;;;;;15.63;100.00;95398.94;5017529;28;20128;-79
2023/10/02 01:36:39;;;;;;;13.25;5.75;;;;;;;15.64;100.00;95400.53;5033822;28;20072;-80
2023/10/02 01:39:13;;;;;;;15.25;6.47;;;;;;;15.62;100.00;95388.66;5033485;28;20043;-80
2023/10/02 01:41:40;;;;;;;14.73;6.60;;;;;;;15.49;100.00;95388.19;5018216;28;20022;-80
2023/10/02 01:44:10;;;;;;;9.98;5.38;;;;;;;15.71;100.00;95394.13;5034147;28;20079;-80
2023/10/02 01:46:49;;;;;;;12.02;5.65;;;;;;;15.52;100.00;95389.50;5033972;28;20324;-80
2023/10/02 01:49:27;;;;;;;11.63;5.95;;;;;;;15.62;100.00;95396.56;5034486;28;20095;-79
2023/10/02 01:52:07;;;;;;;12.63;6.45;;;;;;;15.59;100.00;95394.50;5034553;28;20033;-80
2023/10/02 01:54:35;;;;;;;14.18;6.22;;;;;;;15.51;100.00;95396.63;5048377;28;20029;-80
2023/10/02 01:57:00;;;;;;;13.05;6.43;;;;;;;15.50;100.00;95399.56;5017129;28;20044;-80
2023/10/02 01:59:26;;;;;;;13.63;6.47;;;;;;;15.62;100.00;95400.00;5033326;28;20037;-80
2023/10/02 02:01:54;;;;;;;17.38;6.03;;;;;;;15.41;100.00;95401.94;5034346;28;20037;-80
2023/10/02 02:04:20;;;;;;;13.77;5.93;;;;;;;15.48;100.00;95401.66;5049822;28;20056;-80
2023/10/02 02:06:52;;;;;;;12.88;5.78;;;;;;;15.64;100.00;95402.38;5050373;28;20084;-80
2023/10/02 02:09:24;;;;;;;15.63;6.53;;;;;;;15.63;100.00;95398.16;5040153;28;20349;-80
2023/10/02 02:12:05;;;;;;;12.23;6.13;;;;;;;15.56;100.00;95398.44;5054303;28;20442;-80
2023/10/02 02:14:49;;;;;;;13.80;6.38;;;;;;;15.56;100.00;95403.72;5053365;28;20079;-80
2023/10/02 02:17:18;;;;;;;16.17;6.57;;;;;;;15.77;100.00;95398.31;5052957;28;20464;-80
2023/10/02 02:19:53;;;;;;;11.50;5.78;;;;;;;15.97;100.00;95400.06;5052194;28;20036;-80
2023/10/02 02:22:26;;;;;;;15.75;6.78;;;;;;;16.00;100.00;95396.06;5051796;28;20091;-80
2023/10/02 02:25:00;;;;;;;;;;;;;;;16.01;100.00;95395.81;5055406;28;20094;-80
2023/10/02 02:27:27;;;;;;;17.75;5.78;;;;;;;16.05;100.00;95388.09;5040192;28;19932;-80
2023/10/02 02:29:56;;;;;;;12.77;5.80;;;;;;;15.99;100.00;95394.50;5056632;28;20039;-80
2023/10/02 02:32:36;;;;;;;11.20;6.13;;;;;;;15.91;100.00;95395.88;5053027;28;20033;-80
2023/10/02 02:35:06;;;;;;;11.13;6.28;;;;;;;15.85;100.00;95400.38;5056688;28;20072;-80
2023/10/02 02:37:33;;;;;;;16.60;6.63;;;;;;;15.69;100.00;95400.50;5057602;28;20465;-80
2023/10/02 02:42:46;;;;;;;17.17;6.90;;;;;;;15.08;100.00;95399.75;5056870;28;20179;-80
2023/10/02 02:47:54;;;;;;;14.40;6.95;;;;;;;14.86;100.00;95399.28;5058300;28;20350;-80
2023/10/02 02:50:27;;;;;;;14.88;6.72;;;;;;;14.87;100.00;95399.03;5056492;28;20123;-80
2023/10/02 02:53:16;;;;;;;;;;;;;;;14.93;100.00;95405.09;5056996;28;20025;-80
2023/10/02 02:55:38;;;;;;;13.52;6.40;;;;;;;14.99;100.00;95401.34;5057610;28;19916;-80
2023/10/02 02:58:06;;;;;;;16.27;6.50;;;;;;;14.84;100.00;95395.06;5056218;28;20029;-80
2023/10/02 03:00:35;;;;;;;14.82;7.18;;;;;;;14.76;100.00;95400.88;5057513;28;20119;-80
2023/10/02 03:03:02;;;;;;;14.10;6.13;;;;;;;14.79;100.00;95396.94;5056383;28;20024;-80
2023/10/02 03:05:41;;;;;;;16.20;6.70;;;;;;;14.81;100.00;95402.72;5056295;28;20035;-80
2023/10/02 03:08:07;;;;;;;10.82;5.82;;;;;;;14.80;100.00;95398.50;5056297;28;20418;-80
2023/10/02 03:10:39;;;;;;;15.25;6.38;;;;;;;14.86;100.00;95399.28;5039828;28;20127;-80
2023/10/02 03:13:15;;;;;;;14.70;5.82;;;;;;;14.82;100.00;95393.75;5057381;28;20040;-80
2023/10/02 03:15:48;;;;;;;10.60;6.10;;;;;;;14.89;100.00;95393.47;5056227;28;20033;-80
2023/10/02 03:18:30;;;;;;;15.68;7.05;;;;;;;14.96;100.00;95399.25;5055934;28;20074;-80
2023/10/02 03:20:57;;;;;;;12.55;6.63;;;;;;;14.95;100.00;95405.59;5056250;28;20036;-80
2023/10/02 03:23:27;;;;;;;11.73;6.40;;;;;;;14.89;100.00;95394.28;5039745;28;20036;-80
2023/10/02 03:25:56;;;;;;;15.13;6.90;;;;;;;14.98;100.00;95389.22;5056087;28;20025;-80
2023/10/02 03:28:27;;;;;;;16.75;7.07;;;;;;;14.88;100.00;95394.53;5055771;28;20040;-80
2023/10/02 03:30:57;;;;;;;11.00;6.25;;;;;;;14.69;100.00;95395.88;5055941;28;20035;-80
2023/10/02 03:33:25;;;;;;;17.30;6.75;;;;;;;14.78;100.00;95390.88;5055875;28;20031;-80
2023/10/02 03:35:58;;;;;;;15.30;7.18;;;;;;;14.71;100.00;95400.88;5038444;28;20029;-80
2023/10/02 03:38:25;;;;;;;15.35;6.90;;;;;;;14.85;100.00;95398.50;5055370;28;20029;-80
2023/10/02 03:40:57;;;;;;;14.15;6.88;;;;;;;14.90;100.00;95395.84;5055646;28;20023;-80
2023/10/02 03:43:35;;;;;;;18.50;7.33;;;;;;;14.80;100.00;95399.31;5055303;28;20052;-80
2023/10/02 03:46:04;;;;;;;15.10;6.97;;;;;;;14.74;100.00;95397.72;5056571;28;20317;-80
2023/10/02 03:48:33;;;;;;;16.25;7.50;;;;;;;14.71;100.00;95398.25;5038749;28;20025;-80
2023/10/02 03:51:08;;;;;;;16.30;6.97;;;;;;;14.69;100.00;95400.34;5055135;28;20029;-80
2023/10/02 03:53:34;;;;;;;14.02;6.82;;;;;;;14.57;100.00;95398.78;5055175;28;20036;-80
2023/10/02 03:58:50;;;;;;;14.38;6.80;;;;;;;14.71;100.00;95403.53;5035461;28;20043;-80
2023/10/02 04:01:26;;;;;;;11.40;6.45;;;;;;;14.67;100.00;95405.13;5054999;28;20067;-80
2023/10/02 04:06:37;;;;;;;16.13;7.10;;;;;;;14.78;100.00;95400.63;5070260;28;20332;-80
2023/10/02 04:12:02;;;;;;;16.90;6.47;;;;;;;14.85;100.00;95401.16;5051164;28;20032;-80
2023/10/02 04:14:32;;;;;;;12.57;6.70;;;;;;;14.93;100.00;95405.09;5055302;28;20021;-80
2023/10/02 04:20:01;;;;;;;15.75;7.32;;;;;;;15.47;100.00;95403.53;5036066;28;20485;-81
2023/10/02 04:22:26;;;;;;;16.85;7.82;;;;;;;15.57;100.00;95402.66;5034905;28;20018;-81
2023/10/02 04:24:54;;;;;;;14.90;7.25;;;;;;;15.57;100.00;95405.31;5034647;28;20453;-80
2023/10/02 04:32:59;;;;;;;16.35;7.18;;;;;;;15.67;100.00;95407.91;5054647;28;20037;-81
2023/10/02 04:38:09;;;;;;;14.23;6.97;;;;;;;15.60;100.00;95410.03;5053520;28;20075;-81
2023/10/02 04:40:51;;;;;;;19.00;7.07;;;;;;;15.45;100.00;95407.50;5054497;28;20107;-81
2023/10/02 04:43:22;;;;;;;16.48;6.80;;;;;;;15.44;100.00;95405.91;5056894;28;20021;-81
2023/10/02 04:45:52;;;;;;;17.95;7.10;;;;;;;15.33;100.00;95405.94;5054548;28;20464;-80
2023/10/02 04:48:25;;;;;;;18.15;7.10;;;;;;;15.12;100.00;95402.63;5054479;28;20032;-81
2023/10/02 04:50:53;;;;;;;16.13;6.85;;;;;;;15.10;100.00;95410.81;5054541;28;20107;-81
2023/10/02 04:53:22;;;;;;;13.38;6.43;;;;;;;15.07;100.00;95414.00;5054597;28;20043;-81
2023/10/02 04:55:57;;;;;;;16.15;7.10;;;;;;;15.00;100.00;95413.50;5047346;28;20320;-80
2023/10/02 04:58:27;;;;;;;17.45;7.57;;;;;;;15.05;100.00;95416.09;5034527;28;20029;-81
2023/10/02 05:03:55;;;;;;;17.27;6.75;;;;;;;15.00;100.00;95402.16;5037820;28;20029;-80
2023/10/02 05:11:58;;;;;;;19.05;6.85;;;;;;;14.81;100.00;95408.00;5053899;28;20044;-80
2023/10/02 05:14:28;;;;;;;20.33;7.07;;;;;;;14.87;100.00;95404.31;5049048;28;20071;-80
2023/10/02 05:17:17;;;;;;;14.80;6.72;;;;;;;14.80;100.00;95404.59;5053238;28;20120;-80
2023/10/02 05:20:07;;;;;;;15.07;6.10;;;;;;;14.75;100.00;95401.94;5039505;28;20032;-79
2023/10/02 05:22:36;;;;;;;14.50;6.80;;;;;;;14.77;100.00;95402.47;5053809;28;20024;-79
2023/10/02 05:25:07;;;;;;;18.30;7.68;;;;;;;14.75;100.00;95399.31;5037408;28;20123;-79
2023/10/02 05:27:36;;;;;;;13.60;6.97;;;;;;;14.82;100.00;95406.94;5053412;28;20020;-79
2023/10/02 05:30:14;;;;;;;18.23;7.90;;;;;;;14.78;100.00;95405.91;5036881;28;20106;-79
2023/10/02 05:32:40;;;;;;;14.73;6.88;;;;;;;14.77;100.00;95409.59;5053201;28;20037;-79
2023/10/02 05:37:41;;;;;;;17.70;7.10;;;;;;;14.56;100.00;95412.25;5053386;28;20025;-80
2023/10/02 05:51:09;;;;;;;21.55;7.90;;;;;;;14.90;100.00;95421.44;5033546;28;20406;-80
2023/10/02 05:53:34;;;;;;;14.32;7.38;;;;;;;15.03;100.00;95428.78;5033282;28;20140;-80
2023/10/02 05:56:12;;;;;;;23.58;7.78;;;;;;;15.04;100.00;95424.31;5033136;28;20179;-80
2023/10/02 05:58:41;;;;;;;16.80;6.70;;;;;;;15.24;100.00;95426.84;5034304;28;20029;-80
2023/10/02 06:01:18;;;;;;;11.98;5.97;;;;;;;15.36;100.00;95433.69;5039643;28;20059;-80
2023/10/02 06:03:49;;;;;;;15.73;7.35;;;;;;;15.59;100.00;95434.09;5040673;28;20461;-80
2023/10/02 06:06:18;;;;;;;13.90;7.05;;;;;;;15.80;100.00;95432.91;5039869;28;20092;-80
2023/10/02 06:08:48;;;;;;;17.52;6.13;;;;;;;15.97;100.00;95429.13;5039597;28;20021;-80
2023/10/02 06:11:26;;;;;;;17.60;6.63;;;;;;;16.11;100.00;95437.25;5040988;28;20068;-80
2023/10/02 06:13:57;;;;;;;14.43;6.78;;;;;;;16.29;100.00;95435.78;5040126;28;20116;-80
2023/10/02 06:16:29;;;;;;;12.82;6.32;;;;;;;16.43;100.00;95438.56;5039722;28;20059;-80
2023/10/02 06:19:01;;;;;;;18.13;6.90;;;;;;;16.53;100.00;95443.78;5039470;28;20037;-80
2023/10/02 06:21:45;;;;;;;14.20;6.63;;;;;;;16.68;100.00;95439.41;5039713;28;20335;-80
2023/10/02 06:24:17;;;;;;;15.85;6.00;;;;;;;16.83;100.00;95446.38;5041593;28;20025;-80
2023/10/02 06:26:58;;;;;;;15.25;6.47;;;;;;;16.98;100.00;95442.81;5039903;28;20111;-80
2023/10/02 06:29:37;;;;;;;14.02;6.50;;;;;;;17.03;100.00;95440.13;5039902;28;20120;-80
2023/10/02 06:32:20;;;;;;;14.75;6.18;;;;;;;17.14;100.00;95445.31;5039732;28;20088;-80
2023/10/02 06:34:50;;;;;;;18.38;6.80;;;;;;;17.26;100.00;95445.72;5041917;28;20431;-80
2023/10/02 06:37:24;;;;;;;14.52;6.45;;;;;;;17.31;100.00;95450.94;5055886;28;20032;-80
2023/10/02 06:40:04;;;;;;;13.23;6.63;;;;;;;17.36;100.00;95450.09;5039660;28;20036;-80
2023/10/02 06:42:31;;;;;;;12.48;6.22;;;;;;;17.47;100.00;95448.09;5041830;28;20495;-80
2023/10/02 06:45:01;;;;;;;12.32;6.13;;;;;;;17.58;100.00;95451.41;5039616;28;20099;-80
2023/10/02 06:47:30;;;;;;;13.68;6.45;;;;;;;17.66;100.00;95450.75;5039225;28;20029;-80
2023/10/02 06:50:27;;;;;;;18.67;7.00;;;;;;;17.72;100.00;95448.84;5039639;28;20029;-80
2023/10/02 06:52:43;;;;;;;15.25;6.72;;;;;;;17.85;100.00;95453.44;5039266;28;20351;-80
2023/10/02 06:55:11;;;;;;;14.35;6.60;;;;;;;17.92;100.00;95453.06;5039403;28;20029;-80
2023/10/02 06:57:49;;;;;;;13.02;6.22;;;;;;;17.94;100.00;95451.72;5039178;28;20029;-80
2023/10/02 07:00:19;;;;;;;13.65;6.65;;;;;;;18.03;100.00;95454.53;5039614;28;20486;-80
2023/10/02 07:02:56;;;;;;;14.85;6.47;;;;;;;18.13;100.00;95458.88;5039449;28;20036;-80
2023/10/02 07:05:32;;;;;;;16.65;6.03;;;;;;;18.22;100.00;95451.06;5024732;28;20149;-80
2023/10/02 07:08:27;;;;;;;13.00;6.70;;;;;;;18.20;100.00;95458.53;5039633;28;20040;-80
2023/10/02 07:10:52;;;;;;;15.60;6.35;;;;;;;18.16;100.00;95458.31;5040499;28;20454;-80
2023/10/02 07:13:24;;;;;;;19.27;6.60;;;;;;;18.33;100.00;95449.84;5036202;28;20029;-80
2023/10/02 07:15:57;;;;;;;15.02;6.45;;;;;;;18.27;100.00;95458.94;5037274;28;20030;-80
2023/10/02 07:18:37;;;;;;;12.38;6.40;;;;;;;18.39;100.00;95463.81;5019910;28;20036;-80
2023/10/02 07:21:07;;;;;;;14.13;6.60;;;;;;;18.58;100.00;95455.81;5036058;28;20346;-80
2023/10/02 07:23:37;;;;;;;15.38;6.55;;;;;;;18.49;100.00;95465.50;5035953;28;20556;-80
2023/10/02 07:26:05;;;;;;;11.23;6.10;;;;;;;18.64;100.00;95467.09;5035995;28;20533;-80
2023/10/02 07:28:31;;;;;;;12.27;6.70;;;;;;;18.69;100.00;95466.22;5035296;28;20025;-80
2023/10/02 07:30:57;;;;;;;10.82;6.22;;;;;;;18.86;100.00;95463.78;5035807;28;20145;-80
2023/10/02 07:33:23;;;;;;;16.95;6.75;;;;;;;18.86;100.00;95465.69;5035720;28;20029;-80
2023/10/02 07:35:54;;;;;;;10.60;5.70;;;;;;;18.67;100.00;95463.88;5035703;28;20439;-80
2023/10/02 07:38:21;;;;;;;10.60;6.22;;;;;;;18.87;100.00;95465.38;5035462;28;20084;-80
2023/10/02 07:40:48;;;;;;;11.85;6.78;;;;;;;18.94;100.00;95465.00;5035513;28;20029;-80
2023/10/02 07:43:20;;;;;;;11.77;6.45;;;;;;;19.02;100.00;95460.91;5035454;28;20442;-80
2023/10/02 07:46:01;;;;;;;16.23;6.38;;;;;;;18.98;100.00;95468.63;5035755;28;20446;-80
2023/10/02 07:48:35;;;;;;;15.82;6.60;;;;;;;19.23;100.00;95471.13;5020702;28;20029;-80
2023/10/02 07:51:02;;;;;;;14.18;7.35;;;;;;;19.38;100.00;95462.88;5019408;28;20079;-80
2023/10/02 07:53:39;;;;;;;15.50;6.82;;;;;;;19.48;100.00;95467.97;5035495;28;20033;-80
2023/10/02 07:56:06;;;;;;;14.25;6.18;;;;;;;19.41;100.00;95477.44;5035522;28;20330;-80
2023/10/02 07:58:36;;;;;;;16.33;7.20;;;;;;;19.38;100.00;95478.81;5018565;28;20190;-80
2023/10/02 08:01:11;;;;;;;13.00;6.45;;;;;;;19.51;100.00;95474.59;5035350;28;20423;-80
2023/10/02 08:03:43;;;;;;;15.35;6.75;;;;;;;19.57;100.00;95478.69;5036386;28;20030;-80
2023/10/02 08:06:22;;;;;;;15.20;6.50;;;;;;;19.61;100.00;95471.69;5035183;28;20469;-80
2023/10/02 08:09:24;;;;;;;13.18;6.25;;;;;;;19.75;100.00;95473.53;5034865;28;20060;-80
2023/10/02 08:11:33;;;;;;;19.13;5.68;;;;;;;19.87;100.00;95479.13;5034781;28;20052;-80
2023/10/02 08:13:59;;;;;;;17.08;6.38;;;;;;;19.98;100.00;95484.28;5034903;28;20034;-80
2023/10/02 08:16:26;;;;;;;12.73;6.28;;;;;;;20.03;100.00;95478.81;5034951;28;20043;-80
2023/10/02 08:18:58;;;;;;;16.48;6.78;;;;;;;20.09;100.00;95474.97;5034294;28;20029;-80
2023/10/02 08:21:35;;;;;;;15.68;6.95;;;;;;;20.20;100.00;95473.63;5034472;28;20028;-80
2023/10/02 08:24:05;;;;;;;13.18;6.63;;;;;;;20.38;100.00;95475.66;5034878;28;20037;-80
2023/10/02 08:26:38;;;;;;;9.95;5.65;;;;;;;20.55;100.00;95481.06;5034739;28;20037;-80
2023/10/02 08:29:10;;;;;;;;;;;;;;;20.60;100.00;95472.97;5018948;28;20131;-80
2023/10/02 08:31:42;;;;;;;16.98;6.95;;;;;;;20.83;100.00;95474.84;5018289;28;19924;-80
2023/10/02 08:34:12;;;;;;;15.93;6.03;;;;;;;20.94;100.00;95473.47;5035404;28;20091;-80
2023/10/02 08:36:39;;;;;;;17.50;6.03;;;;;;;21.11;100.00;95475.44;5034633;28;20026;-80
2023/10/02 08:39:05;;;;;;;14.50;5.75;;;;;;;21.15;100.00;95475.63;5035353;28;20040;-80
2023/10/02 08:41:30;;;;;;;13.73;5.97;;;;;;;21.28;100.00;95473.94;5034470;28;20021;-80
2023/10/02 08:44:00;;;;;;;12.18;5.82;;;;;;;21.39;100.00;95474.47;5018076;28;20030;-80
2023/10/02 08:46:26;;;;;;;14.25;5.90;;;;;;;21.44;95.36;95471.63;5018610;28;20453;-80
2023/10/02 08:48:54;;;;;;;12.25;6.13;;;;;;;21.56;97.38;95469.16;5033876;28;20469;-80
2023/10/02 08:51:32;;;;;;;11.25;5.68;;;;;;;21.71;95.82;95470.59;5034202;28;20742;-80
2023/10/02 08:53:59;;;;;;;9.88;5.63;;;;;;;21.87;92.60;95478.16;5035377;28;20029;-80
2023/10/02 08:56:37;;;;;;;12.13;6.05;;;;;;;21.93;89.85;95470.78;5034397;28;20042;-80
2023/10/02 08:59:16;;;;;;;13.18;5.68;;;;;;;21.92;91.22;95469.22;5035292;28;20036;-80
2023/10/02 09:01:47;;;;;;;11.15;5.32;;;;;;;22.10;91.32;95467.34;5035215;28;20538;-80
2023/10/02 09:04:22;;;;;;;9.30;5.22;;;;;;;22.16;89.96;95463.41;5034481;28;20431;-81
2023/10/02 09:06:49;;;;;;;12.02;5.60;;;;;;;22.34;89.71;95461.53;5034080;28;20439;-80
2023/10/02 09:11:57;;;;;;;10.40;5.80;;;;;;;22.55;87.93;95468.91;5034249;28;20068;-80
2023/10/02 09:19:41;;;;;;;9.57;5.05;;;;;;;22.80;77.04;95464.63;5034916;28;19920;-81
2023/10/02 09:22:14;;;;;;;9.50;4.85;;;;;;;22.74;78.69;95458.66;5033706;28;20021;-80
2023/10/02 09:24:41;;;;;;;14.57;5.37;;;;;;;22.94;80.17;95463.63;5033798;28;20037;-81
2023/10/02 09:27:27;;;;;;;11.50;5.57;;;;;;;23.11;80.30;95468.13;5033266;28;20280;-81
2023/10/02 09:30:17;;;;;;;11.35;5.70;;;;;;;22.89;76.84;95456.56;5019781;28;20033;-81
2023/10/02 09:32:49;;;;;;;18.35;6.00;;;;;;;23.07;77.48;95459.16;5033669;28;20379;-80
2023/10/02 09:35:32;;;;;;;10.95;5.47;;;;;;;23.13;76.22;95458.66;5033188;28;20124;-81
2023/10/02 09:38:06;;;;;;;13.50;5.75;;;;;;;22.95;75.56;95454.50;5034131;28;20331;-81
2023/10/02 09:40:54;;;;;;;14.68;5.55;;;;;;;23.22;76.08;95452.50;5033678;28;20029;-81
2023/10/02 09:43:31;;;;;;;10.73;5.10;;;;;;;23.37;75.63;95446.66;5033725;28;20059;-81
2023/10/02 09:46:07;;;;;;;12.38;5.40;;;;;;;23.44;75.29;95452.25;5017270;28;20036;-81
2023/10/02 09:51:45;;;;;;;11.63;5.50;;;;;;;23.60;73.39;95446.38;5034503;28;20091;-81
2023/10/02 09:54:32;;;;;;;8.30;5.55;;;;;;;23.53;72.45;95446.88;5033510;28;20030;-81
2023/10/02 09:57:13;;;;;;;11.57;5.15;;;;;;;23.72;72.99;95442.97;5016769;28;20439;-81
2023/10/02 09:59:46;;;;;;;9.93;5.35;;;;;;;23.76;72.40;95441.22;5033315;28;20029;-80
2023/10/02 10:10:28;;;;;;;8.25;4.78;;;;;;;24.09;67.76;95427.13;5034368;28;20029;-81
2023/10/02 10:13:09;;;;;;;8.45;4.63;;;;;;;24.17;66.22;95428.16;5034354;28;20425;-81
2023/10/02 10:15:37;;;;;;;8.10;4.28;;;;;;;24.19;64.11;95423.28;5033398;28;20029;-80
2023/10/02 10:18:12;;;;;;;10.85;4.45;;;;;;;24.13;63.52;95427.25;5016670;28;20136;-81
2023/10/02 10:20:38;;;;;;;8.32;4.60;;;;;;;24.22;62.76;95427.97;5034538;28;20116;-81
2023/10/02 10:23:31;;;;;;;9.68;4.35;;;;;;;24.30;63.92;95418.28;5033097;28;20035;-81
2023/10/02 10:26:07;;;;;;;13.07;4.63;;;;;;;24.29;64.07;95417.50;5018051;28;20033;-81
2023/10/02 10:28:33;;;;;;;9.02;4.50;;;;;;;24.46;65.09;95417.66;5032830;28;20116;-81
2023/10/02 10:31:02;;;;;;;7.65;4.10;;;;;;;24.49;64.60;95420.47;5032866;28;20116;-81
2023/10/02 10:33:33;;;;;;;9.00;4.20;;;;;;;24.66;63.81;95416.03;5033141;28;20083;-81
2023/10/02 10:36:02;;;;;;;10.70;4.57;;;;;;;24.74;63.33;95417.03;5033062;28;20382;-81
2023/10/02 10:38:36;;;;;;;10.80;4.32;;;;;;;24.59;62.44;95415.78;5016391;28;20053;-80
2023/10/02 10:41:27;;;;;;;7.68;4.85;;;;;;;24.59;62.61;95415.78;5034438;28;20124;-81
2023/10/02 10:44:06;;;;;;;7.55;4.10;;;;;;;24.79;62.63;95412.28;5032969;28;20030;-80
2023/10/02 10:46:32;;;;;;;10.75;3.90;;;;;;;24.95;62.30;95408.94;5036252;28;20033;-81
2023/10/02 10:48:59;;;;;;;10.80;4.45;;;;;;;25.28;63.19;95413.41;5036277;28;20033;-81
2023/10/02 10:51:28;;;;;;;7.22;4.00;;;;;;;25.17;64.48;95412.28;5036401;28;20030;-80
2023/10/02 10:54:12;;;;;;;9.55;4.28;;;;;;;25.06;62.63;95414.63;5036765;28;20469;-80
2023/10/02 10:57:18;;;;;;;5.68;3.50;;;;;;;24.96;61.89;95413.97;5036638;28;20029;-81
2023/10/02 10:59:45;;;;;;;6.90;4.20;;;;;;;24.90;61.68;95401.91;5022880;28;20651;-80
2023/10/02 11:02:13;;;;;;;8.55;3.92;;;;;;;25.01;61.87;95404.16;5036326;28;20029;-81
2023/10/02 11:04:49;;;;;;;9.82;4.07;;;;;;;25.17;61.95;95405.03;5036777;28;20034;-81
2023/10/02 11:07:25;;;;;;;10.13;4.88;;;;;;;25.13;61.78;95404.16;5019276;28;20362;-80
2023/10/02 11:10:19;;;;;;;11.15;3.80;;;;;;;24.99;61.48;95402.59;5036451;28;20039;-80
2023/10/02 11:12:56;;;;;;;9.30;3.95;;;;;;;25.26;60.87;95394.19;5036204;28;20108;-81
2023/10/02 11:15:46;;;;;;;6.53;4.07;;;;;;;25.20;61.74;95393.63;5036573;28;20061;-80
2023/10/02 11:18:26;;;;;;;9.27;4.03;;;;;;;25.18;60.79;95401.22;5035729;28;20080;-81
2023/10/02 11:20:57;;;;;;;9.10;4.00;;;;;;;25.08;60.16;95393.63;5036119;28;20029;-80
2023/10/02 11:23:37;;;;;;;7.85;4.18;;;;;;;25.04;59.52;95395.44;5036016;28;20029;-81
2023/10/02 11:26:21;;;;;;;9.85;4.30;;;;;;;24.84;60.78;95389.84;5037075;28;20033;-80
2023/10/02 11:28:50;;;;;;;8.23;4.85;;;;;;;24.79;61.89;95387.38;5035687;28;20026;-80
2023/10/02 11:34:08;;;;;;;7.10;4.20;;;;;;;24.47;62.77;95382.50;5037044;28;20048;-80
2023/10/02 11:36:39;;;;;;;12.25;4.50;;;;;;;24.60;63.66;95371.78;5035739;28;20120;-80
2023/10/02 11:39:09;;;;;;;10.48;5.15;;;;;;;24.47;63.23;95374.47;5035375;28;20040;-80
2023/10/02 11:41:39;;;;;;;10.90;4.00;;;;;;;24.88;62.84;95373.84;5036415;28;20033;-80
2023/10/02 11:44:06;;;;;;;9.02;4.75;;;;;;;24.77;62.62;95368.16;5035475;28;20033;-80
2023/10/02 11:46:32;;;;;;;10.13;4.78;;;;;;;24.88;62.25;95371.97;5035847;28;20037;-80
2023/10/02 11:48:58;;;;;;;12.82;4.63;;;;;;;24.82;61.53;95367.97;5035092;28;20040;-80
2023/10/02 11:51:28;;;;;;;15.90;4.90;;;;;;;24.99;61.15;95367.75;5035288;28;20139;-81
2023/10/02 11:54:05;;;;;;;13.77;4.63;;;;;;;24.81;63.46;95366.38;5019463;28;20178;-80
2023/10/02 11:56:31;;;;;;;9.40;4.90;;;;;;;24.85;63.60;95359.25;5034592;28;20037;-80
2023/10/02 11:58:57;;;;;;;12.23;4.22;;;;;;;25.17;64.13;95362.13;5034968;28;20033;-81
2023/10/02 12:01:24;;;;;;;9.50;4.60;;;;;;;25.32;63.90;95354.50;5035420;28;20026;-81
2023/10/02 12:03:50;;;;;;;10.38;4.38;;;;;;;25.21;62.63;95356.88;5035199;28;20067;-80
2023/10/02 12:06:16;;;;;;;14.57;4.50;;;;;;;25.13;62.72;95353.22;5035206;28;20510;-80
2023/10/02 12:08:44;;;;;;;10.82;4.70;;;;;;;25.16;63.12;95352.53;5034617;28;20043;-81
2023/10/02 12:11:13;;;;;;;10.30;4.72;;;;;;;25.06;64.26;95352.97;5035157;28;20467;-81
2023/10/02 12:13:39;;;;;;;11.15;4.97;;;;;;;24.99;63.46;95348.97;5035366;28;20044;-81
2023/10/02 12:16:05;;;;;;;13.70;5.15;;;;;;;24.80;62.63;95341.50;5036570;28;20033;-80
2023/10/02 12:18:33;;;;;;;9.27;4.43;;;;;;;25.11;63.08;95347.41;5034422;28;20079;-80
2023/10/02 12:20:59;;;;;;;7.88;4.53;;;;;;;25.12;64.44;95341.69;5034832;28;20033;-81
2023/10/02 12:23:25;;;;;;;12.43;5.25;;;;;;;25.34;63.06;95333.50;5034751;28;20033;-81
2023/10/02 12:25:51;;;;;;;12.13;5.05;;;;;;;25.61;62.09;95333.91;5018812;28;20037;-81
2023/10/02 12:28:17;;;;;;;12.15;4.70;;;;;;;25.75;62.61;95341.56;5022305;28;20025;-81
2023/10/02 12:30:43;;;;;;;12.30;5.90;;;;;;;25.90;62.75;95332.00;5054031;28;20434;-81
2023/10/02 12:33:09;;;;;;;13.45;4.75;;;;;;;26.09;61.67;95329.44;5055191;28;20707;-81
2023/10/02 12:35:36;;;;;;;9.25;4.70;;;;;;;26.17;61.13;95329.63;5054419;28;20156;-81
2023/10/02 12:38:03;;;;;;;12.25;5.05;;;;;;;25.98;61.81;95321.09;5054001;28;20029;-80
2023/10/02 12:40:31;;;;;;;14.93;4.85;;;;;;;25.92;61.65;95324.38;5054253;28;20032;-81
2023/10/02 12:43:03;;;;;;;13.88;5.00;;;;;;;25.51;62.48;95338.63;5037835;28;20798;-81
2023/10/02 12:45:35;;;;;;;9.50;4.53;;;;;;;25.46;61.77;95333.47;5037807;28;20029;-80
2023/10/02 12:48:06;;;;;;;12.27;4.97;;;;;;;25.42;nan;95330.69;5053651;28;20354;-80
2023/10/02 12:50:37;;;;;;;13.10;4.75;;;;;;;25.51;63.72;95327.13;5054054;28;20040;-80
2023/10/02 12:53:04;;;;;;;10.73;5.30;;;;;;;25.48;61.88;95325.88;5053838;28;20065;-81
2023/10/02 12:55:32;;;;;;;9.07;5.30;;;;;;;25.47;62.34;95331.59;5054290;28;20055;-81
2023/10/02 12:57:58;;;;;;;11.45;5.25;;;;;;;25.89;61.71;95323.16;5033577;28;20040;-81
2023/10/02 13:00:24;;;;;;;13.63;4.90;;;;;;;25.88;61.53;95326.19;5053406;28;20036;-81